Terminal Aerodrome Forecast
Issued by NWS

Current Version | Previous Version | Text Only | Print | Product List | Glossary Off
Versions: 1 2 3 4 5 6 7 8 9 10 11 12 13 14 15 16 17

000
FTUS41 KILN 291100
TAFLUK
TAF
KLUK 291126Z 2912/3012 18003KT P6SM SKC
     FM291300 18008KT P6SM SCT200
     FM291600 19012G20KT P6SM BKN150
     FM292200 20009KT P6SM -SHRA SCT050 OVC080
     FM300500 23010KT P6SM VCSH SCT015 OVC025
     FM300900 26010KT P6SM SCT250=

USA.gov is the U.S. government's official web portal to all federal, state and local government web resources and services.